Flight Track Log - Related Links

Times and Time Zones

All times are in EDT time to prevent confusion due to time zone crossing. See the UAL335 flight status page for this flight to view local times or setup timezone preferences in your user account.

Time Position Orientation Groundspeed Altitude Reporting Facility
EDT Latitude Longitude Course Direction KTS MPH feet Rate Location/Type
Fri 04:36:54 PM 28.0000 -82.5333 North 154 177 800  Level Tampa TRACON
Fri 04:37:37 PM 28.0333 -82.5333 360° North 176 203 1,700 2,028 Climbing Tampa TRACON
Fri 04:39:00 PM 28.3077 -82.5667 North  Level FlightAware Approximate
Fri 04:39:16 PM 28.1347 -82.5394 357° North 245 282 5,600  Level Jacksonville Center
Fri 04:40:00 PM 28.4232 -82.5706 355° North  Level FlightAware Approximate
Fri 04:40:16 PM 28.2100 -82.5464 355° North 257 296 8,800  Level Jacksonville Center
Fri 04:41:00 PM 28.5384 -82.5822 355° North  Level FlightAware Approximate
Fri 04:41:16 PM 28.2914 -82.5556 354° North 277 319 11,500  Level Jacksonville Center
Fri 04:42:00 PM 28.6540 -82.5833 North  Level FlightAware Approximate
Fri 04:42:16 PM 28.3792 -82.5622 356° North 297 342 13,200  Level Jacksonville Center
Fri 04:43:16 PM 28.4708 -82.5928 344° North 322 371 15,700 2,150 Climbing Jacksonville Center
Fri 04:44:16 PM 28.5650 -82.6278 342° North 341 392 17,500 1,650 Climbing Jacksonville Center
Fri 04:45:16 PM 28.6653 -82.6608 344° North 353 406 19,000 1,700 Climbing Jacksonville Center
Fri 04:46:16 PM 28.7592 -82.6722 354° North 365 420 20,900 1,800 Climbing Jacksonville Center
Fri 04:47:16 PM 28.8697 -82.6744 359° North 375 432 22,600 1,600 Climbing Jacksonville Center
Fri 04:48:16 PM 28.9825 -82.6789 358° North 395 455 24,100 1,600 Climbing Jacksonville Center
Fri 04:49:16 PM 29.0994 -82.6786 360° North 407 468 25,800 1,550 Climbing Jacksonville Center
Fri 04:50:16 PM 29.2119 -82.6783 360° North 407 468 27,200 1,200 Climbing Jacksonville Center
Fri 04:51:16 PM 29.3311 -82.6806 359° North 407 468 28,200 1,100 Climbing Jacksonville Center
Fri 04:52:16 PM 29.4522 -82.6828 359° North 419 482 29,400 1,300 Climbing Jacksonville Center
Fri 04:53:16 PM 29.5858 -82.6847 359° North 437 503 30,800 1,400 Climbing Jacksonville Center
Fri 04:54:16 PM 29.7047 -82.6894 358° North 432 497 32,200 1,200 Climbing Jacksonville Center
Fri 04:55:16 PM 29.8258 -82.6892 360° North 426 490 33,200 1,000 Climbing Jacksonville Center
Fri 04:56:16 PM 29.9428 -82.6911 359° North 421 484 34,200 850 Climbing Jacksonville Center
Fri 04:57:16 PM 30.0514 -82.6886 North 421 484 34,900 650 Climbing Jacksonville Center
Fri 04:58:16 PM 30.1808 -82.6883 360° North 421 484 35,500 850 Climbing Jacksonville Center
Fri 04:59:16 PM 30.2872 -82.6856 North 421 484 36,600 750 Climbing Jacksonville Center
Fri 05:00:16 PM 30.4042 -82.6856 360° North 421 484 37,000 150 Climbing Jacksonville Center
Fri 05:01:16 PM 30.5231 -82.6683 North 421 484 36,900 -50 Descending Jacksonville Center
Fri 05:02:16 PM 30.6461 -82.6197 19° North 421 484 36,900  Level Jacksonville Center
Fri 05:03:16 PM 30.7608 -82.5661 22° Northeast 428 493 36,900 50 Level Jacksonville Center
Fri 05:04:16 PM 30.8611 -82.5150 24° Northeast 434 499 37,000 50 Climbing Jacksonville Center
Fri 05:05:16 PM 30.9756 -82.4589 23° Northeast 434 499 37,000 -50 Level Jacksonville Center
Fri 05:06:16 PM 31.0903 -82.4050 22° Northeast 434 499 36,900 -50 Descending Jacksonville Center
Fri 05:07:16 PM 31.2028 -82.3508 22° Northeast 434 499 36,900  Level Jacksonville Center
Fri 05:08:16 PM 31.3175 -82.2967 22° Northeast 434 499 36,900 50 Level Jacksonville Center
Fri 05:09:16 PM 31.4300 -82.2400 23° Northeast 434 499 37,000 50 Climbing Jacksonville Center
Fri 05:10:16 PM 31.5403 -82.1856 23° Northeast 434 499 37,000  Level Jacksonville Center
Fri 05:11:16 PM 31.6631 -82.1236 23° Northeast 429 494 37,000  Level Jacksonville Center
Fri 05:12:16 PM 31.7589 -82.0739 24° Northeast 430 495 37,000  Level Jacksonville Center
Fri 05:13:16 PM 31.8858 -82.0117 23° Northeast 435 501 37,000  Level Jacksonville Center
Fri 05:14:16 PM 31.9961 -81.9569 23° Northeast 435 501 37,000  Level Jacksonville Center
Fri 05:15:16 PM 32.0981 -81.9092 22° Northeast 435 501 37,000 50 Level Jacksonville Center
Fri 05:16:16 PM 32.2228 -81.8514 21° North 435 501 37,100  Climbing Jacksonville Center
Fri 05:17:16 PM 32.3267 -81.8033 21° North 435 501 37,000 -50 Descending Jacksonville Center
Fri 05:18:16 PM 32.4494 -81.7453 22° Northeast 435 501 37,000  Level Jacksonville Center
Fri 05:19:16 PM 32.5617 -81.6922 22° Northeast 439 505 37,000  Level Jacksonville Center
Fri 05:20:16 PM 32.6636 -81.6439 22° Northeast 434 499 37,000  Level Jacksonville Center
Fri 05:21:16 PM 32.7778 -81.5881 22° Northeast 434 499 37,000  Level Jacksonville Center
Fri 05:22:16 PM 32.8900 -81.5319 23° Northeast 434 499 37,000  Level Jacksonville Center
Fri 05:23:16 PM 33.0042 -81.4758 22° Northeast 434 499 37,000  Level Jacksonville Center
Fri 05:24:16 PM 33.1161 -81.4219 22° Northeast 434 499 37,000 -50 Level Jacksonville Center
Fri 05:25:16 PM 33.2386 -81.3628 22° Northeast 434 499 36,900 -50 Descending Jacksonville Center
Fri 05:26:16 PM 33.3381 -81.3114 23° Northeast 428 493 36,900  Level Jacksonville Center
Fri 05:27:16 PM 33.4481 -81.2594 22° Northeast 428 493 36,900  Level Jacksonville Center
Fri 05:28:16 PM 33.5581 -81.2053 22° Northeast 428 493 36,900  Level Jacksonville Center
Fri 05:29:16 PM 33.6658 -81.1533 22° Northeast 423 487 36,900 50 Level Jacksonville Center
Fri 05:30:16 PM 33.7858 -81.0883 24° Northeast 423 487 37,000 50 Climbing Jacksonville Center
Fri 05:31:16 PM 33.8789 -81.0264 29° Northeast 423 487 37,000  Level Jacksonville Center
Fri 05:32:16 PM 33.9733 -80.9292 40° Northeast 429 494 37,000  Level Jacksonville Center
Fri 05:33:16 PM 34.0658 -80.8294 42° Northeast 435 501 37,000 -50 Level Jacksonville Center
Fri 05:34:16 PM 34.1581 -80.7319 41° Northeast 440 506 36,900  Descending Jacksonville Center
Fri 05:35:16 PM 34.2481 -80.6292 43° Northeast 440 506 37,000 50 Climbing Jacksonville Center
Fri 05:36:16 PM 34.3461 -80.5211 42° Northeast 434 499 37,000  Level Jacksonville Center
Fri 05:37:16 PM 34.4361 -80.4203 43° Northeast 434 499 37,000 -50 Level Jacksonville Center
Fri 05:38:16 PM 34.5239 -80.3247 42° Northeast 434 499 36,900 -50 Descending Jacksonville Center
Fri 05:39:16 PM 34.6114 -80.2236 44° Northeast 434 499 36,900 44 Level Jacksonville Center
Fri 05:40:31 PM 34.7144 -80.1069 43° Northeast 426 490 37,000 45 Climbing Washington Center
Fri 05:41:29 PM 34.7889 -80.0200 44° Northeast 420 483 37,000  Level Washington Center
Fri 05:42:30 PM 34.8800 -79.9214 42° Northeast 420 483 37,000  Level Washington Center
Fri 05:43:31 PM 34.9669 -79.8247 42° Northeast 420 483 37,000  Level Washington Center
Fri 05:44:29 PM 35.0558 -79.7278 42° Northeast 420 483 37,000  Level Washington Center
Fri 05:45:29 PM 35.1428 -79.6306 42° Northeast 420 483 37,000  Level Washington Center
Fri 05:46:30 PM 35.2372 -79.5514 34° Northeast 415 478 37,000  Level Washington Center
Fri 05:47:31 PM 35.3419 -79.4700 32° Northeast 410 472 37,000  Level Washington Center
Fri 05:48:29 PM 35.4444 -79.4011 29° Northeast 405 466 37,000  Level Washington Center
Fri 05:49:29 PM 35.5342 -79.3364 30° Northeast 410 472 37,000  Level Washington Center
Fri 05:50:30 PM 35.6389 -79.2569 32° Northeast 410 472 37,000  Level Washington Center
Fri 05:51:31 PM 35.7369 -79.1872 30° Northeast 410 472 37,000  Level Washington Center
Fri 05:52:29 PM 35.8372 -79.1125 31° Northeast 410 472 37,000  Level Washington Center
Fri 05:53:29 PM 35.9331 -79.0422 31° Northeast 410 472 37,000  Level Washington Center
Fri 05:54:30 PM 36.0311 -78.9694 31° Northeast 410 472 37,000  Level Washington Center
Fri 05:55:31 PM 36.1292 -78.8967 31° Northeast 410 472 37,000  Level Washington Center
Fri 05:56:31 PM 36.2272 -78.8233 31° Northeast 410 472 37,000  Level Washington Center
Fri 05:57:29 PM 36.3253 -78.7500 31° Northeast 405 466 37,000  Level Washington Center
Fri 05:58:29 PM 36.4250 -78.6792 30° Northeast 410 472 37,000  Level Washington Center
Fri 05:59:30 PM 36.5208 -78.6031 33° Northeast 410 472 37,000  Level Washington Center
Fri 06:00:29 PM 36.6208 -78.5292 31° Northeast 410 472 37,000  Level Washington Center
Fri 06:01:30 PM 36.7058 -78.4597 33° Northeast 404 465 37,000  Level Washington Center
Fri 06:02:30 PM 36.8036 -78.3856 31° Northeast 404 465 37,000  Level Washington Center
Fri 06:03:31 PM 36.8992 -78.3111 32° Northeast 404 465 37,000  Level Washington Center
Fri 06:04:31 PM 37.0011 -78.2342 31° Northeast 410 472 37,000  Level Washington Center
Fri 06:05:28 PM 37.0986 -78.1594 31° Northeast 417 480 37,000  Level Washington Center
Fri 06:06:29 PM 37.1964 -78.0844 31° Northeast 411 473 37,000  Level Washington Center
Fri 06:07:30 PM 37.2958 -78.0094 31° Northeast 416 479 37,000  Level Washington Center
Fri 06:08:31 PM 37.3956 -77.9314 32° Northeast 416 479 37,000  Level Washington Center
Fri 06:09:31 PM 37.4950 -77.8561 31° Northeast 416 479 37,000  Level Washington Center
Fri 06:10:31 PM 37.5925 -77.7750 33° Northeast 416 479 37,000  Level Washington Center
Fri 06:11:29 PM 37.6900 -77.6833 37° Northeast 426 490 37,000  Level Washington Center
Fri 06:12:30 PM 37.7894 -77.5942 35° Northeast 431 496 37,000  Level Washington Center
Fri 06:13:30 PM 37.8869 -77.5047 36° Northeast 431 496 37,000  Level Washington Center
Fri 06:14:31 PM 37.9864 -77.4150 35° Northeast 431 496 37,000  Level Washington Center
Fri 06:15:30 PM 38.0900 -77.3197 36° Northeast 431 496 37,000  Level Washington Center
Fri 06:16:29 PM 38.1869 -77.2297 36° Northeast 431 496 37,000  Level Washington Center
Fri 06:17:30 PM 38.2781 -77.1389 38° Northeast 436 502 37,000  Level Washington Center
Fri 06:18:30 PM 38.3833 -77.0458 35° Northeast 431 496 37,000  Level Washington Center
Fri 06:19:31 PM 38.4825 -76.9550 36° Northeast 431 496 37,000  Level Washington Center
Fri 06:20:31 PM 38.5794 -76.8639 36° Northeast 431 496 37,000 -50 Level Washington Center
Fri 06:21:31 PM 38.6803 -76.7697 36° Northeast 431 496 36,900  Descending Washington Center
Fri 06:22:29 PM 38.7731 -76.6647 41° Northeast 437 503 37,000 -356 Climbing Washington Center
Fri 06:23:29 PM 38.8700 -76.5569 41° Northeast 448 516 36,200 -1,041 Descending Washington Center
Fri 06:24:30 PM 38.9456 -76.4697 42° Northeast 448 516 34,900 -2,380 Descending Washington Center
Fri 06:25:30 PM 39.0592 -76.3319 43° Northeast 453 521 31,400 -2,678 Descending Washington Center
Fri 06:26:31 PM 39.1556 -76.2233 41° Northeast 459 528 29,500 -2,033 Descending Washington Center
Fri 06:27:31 PM 39.2497 -76.1169 41° Northeast 459 528 27,300 -1,322 Descending Washington Center
Fri 06:28:29 PM 39.3378 -76.0156 42° Northeast 438 504 26,900 -151 Descending Washington Center
Fri 06:29:30 PM 39.4256 -75.9114 42° Northeast 426 490 27,000 -595 Climbing Washington Center
Fri 06:30:30 PM 39.5031 -75.8200 42° Northeast 421 484 25,700 -1,686 Descending Washington Center
Fri 06:31:31 PM 39.5906 -75.7153 43° Northeast 421 484 23,600 -1,983 Descending Washington Center
Fri 06:32:31 PM 39.6739 -75.6158 43° Northeast 421 484 21,700 -2,085 Descending Washington Center
Fri 06:33:29 PM 39.7553 -75.5214 42° Northeast 409 471 19,500 -1,881 Descending Washington Center
Fri 06:34:29 PM 39.8342 -75.4239 43° Northeast 397 457 18,000 -1,785 Descending Washington Center
Fri 06:35:30 PM 39.9069 -75.3344 43° Northeast 375 432 15,900 -2,231 Descending Washington Center
Fri 06:36:30 PM 39.9797 -75.2422 44° Northeast 364 419 13,500 -2,132 Descending Washington Center
Fri 06:37:31 PM 40.0503 -75.1578 42° Northeast 352 405 11,600 -1,236 Descending Washington Center
Fri 06:39:15 PM 40.1667 -75.0167 43° Northeast 300 345 10,100 -1,171 Descending New York TRACON
Fri 06:40:15 PM 40.2333 -74.9333 44° Northeast 289 333 8,400 -1,050 Descending New York TRACON
Fri 06:41:15 PM 40.2833 -74.8667 45° Northeast 279 321 8,000 -417 Descending New York TRACON
Fri 06:42:10 PM 40.3333 -74.8000 45° Northeast 274 315 7,600 -1,000 Descending New York TRACON
Fri 06:43:09 PM 40.3833 -74.7333 45° Northeast 266 306 6,100 -807 Descending New York TRACON
Fri 06:44:09 PM 40.4333 -74.6667 45° Northeast 271 312 6,000 -48 Descending New York TRACON
Fri 06:45:15 PM 40.5167 -74.6500 North 263 303 6,000  Level New York TRACON
Fri 06:46:10 PM 40.5833 -74.6333 11° North 266 306 6,000  Level New York TRACON
Fri 06:47:10 PM 40.6500 -74.6000 21° North 264 304 6,000  Level New York TRACON
Fri 06:48:10 PM 40.7167 -74.5667 21° North 268 308 6,000 -480 Level New York TRACON
Fri 06:49:15 PM 40.7833 -74.5167 30° Northeast 263 303 5,000 -480 Descending New York TRACON
Fri 06:50:15 PM 40.8500 -74.4667 30° Northeast 267 307 5,000  Level New York TRACON
Fri 06:51:15 PM 40.9167 -74.4167 30° Northeast 269 310 5,000  Level New York TRACON
Fri 06:52:15 PM 40.9500 -74.3333 62° Northeast 258 297 5,000  Level New York TRACON
Fri 06:53:15 PM 40.9833 -74.2500 62° Northeast 227 261 5,000 -500 Level New York TRACON
Fri 06:54:15 PM 40.9667 -74.1833 108° East 229 264 4,000 -650 Descending New York TRACON
Fri 06:55:15 PM 40.9333 -74.1000 118° Southeast 227 261 3,700 -500 Descending New York TRACON
Fri 06:56:15 PM 40.8833 -74.0833 166° South 186 214 3,000 -700 Descending New York TRACON

Login

Don't have an account? Register now (free) for customized features, flight alerts, and more!